Rize — 9HA2781 — position and weather

sailwx.info

Track history (hours):
 
Tides and Currents Weather Stations Pressure Air Temp Water Temp Dewpoint Dewpoint Depression Visibility Wind Speed Wind Dir Waves Ship Positions

Rize

Last reported at 2017-May-20 21:49 UTC. Time now 2017-May-25 22:09 UTC.
Position N 34°55' W 010°53'.

Length 229 m; draft 7.7 m.

Type: Cargo ship. MMSI: 215677000.

Date/timePositionNaut miles runAvg speedWind from/ knotsBaromVisibWave heightAir tempDewpointWater temp
2017-May-20 21:49N 34°55' W 010°53'410.7
2017-May-20 21:27N 34°56' W 010°48'510.9
2017-May-20 20:59N 34°57' W 010°42'510.7
2017-May-20 20:29N 34°58' W 010°36'510.9
2017-May-20 20:00N 34°60' W 010°30'611.1
2017-May-20 19:30N 35°01' W 010°23'610.8
2017-May-20 19:00N 35°03' W 010°17'610.9
2017-May-20 18:28N 35°04' W 010°10'510.9
2017-May-20 17:58N 35°06' W 010°04'511.0
2017-May-20 17:30N 35°07' W 009°58'2611.1
2017-May-20 15:11N 35°16' W 009°28'210.9
2017-May-20 15:00N 35°17' W 009°26'710.8
2017-May-20 14:22N 35°19' W 009°18'910.1
2017-May-20 13:29N 35°18' W 009°07'510.5
2017-May-20 13:00N 35°20' W 009°01'510.5
2017-May-20 12:30N 35°21' W 008°55'510.7
2017-May-20 12:00N 35°23' W 008°49'510.5
2017-May-20 11:30N 35°25' W 008°43'610.7
2017-May-20 10:58N 35°26' W 008°36'510.6
2017-May-20 10:30N 35°27' W 008°30'510.6
2017-May-20 10:00N 35°28' W 008°24'2610.7
2017-May-20 07:38N 35°35' W 007°53'11111.2
2017-May-19 21:42N 35°57' W 005°39'2 9.7
2017-May-19 21:30N 35°57' W 005°36'510.9
2017-May-19 21:00N 35°58' W 005°30'510.8
2017-May-19 20:30N 36°00' W 005°23'611.7
2017-May-19 20:00N 36°02' W 005°17'611.9
2017-May-19 19:30N 36°02' W 005°09'  
2017-May-12 08:53N 36°05' W 005°24'0 0.0
2017-May-12 08:29N 36°05' W 005°24'0 0.0
2017-May-12 04:17N 36°06' W 005°25'0 0.1
2017-May-12 03:59N 36°06' W 005°25'0 0.0
2017-May-12 03:29N 36°06' W 005°25'0 0.0
2017-May-12 02:59N 36°06' W 005°25'0 0.1
2017-May-12 02:29N 36°06' W 005°25'0 0.0
2017-May-12 01:59N 36°06' W 005°25'0 0.1
2017-May-12 01:29N 36°06' W 005°25'0 0.0
2017-May-11 20:38N 36°05' W 005°24'0 0.0
2017-May-11 20:23N 36°05' W 005°24'0 0.0
2017-May-11 19:59N 36°05' W 005°24'0 0.0
2017-May-11 19:29N 36°05' W 005°24'0 0.1
2017-May-11 18:59N 36°05' W 005°24'0 0.0
2017-May-11 16:47N 36°05' W 005°24'0 0.0
2017-May-11 16:17N 36°05' W 005°24'0 0.0
2017-May-11 10:38N 36°06' W 005°25'0 0.1
2017-May-11 10:11N 36°06' W 005°25'0 0.1
2017-May-11 09:56N 36°06' W 005°24'  
Track history (hours):
 
Tides and Currents Weather Stations Pressure Air Temp Water Temp Dewpoint Dewpoint Depression Visibility Wind Speed Wind Dir Waves Ship Positions

Rize

Last reported at 2017-May-20 21:49 UTC. Time now 2017-May-25 22:09 UTC.
Position N 34°55' W 010°53'.

Length 229 m; draft 7.7 m.

Type: Cargo ship. MMSI: 215677000.

Date/timePositionNaut miles runAvg speedWind from/ knotsBaromVisibWave heightAir tempDewpointWater temp
2017-May-20 21:49N 34°55' W 010°53'410.7
2017-May-20 21:27N 34°56' W 010°48'510.9
2017-May-20 20:59N 34°57' W 010°42'510.7
2017-May-20 20:29N 34°58' W 010°36'510.9
2017-May-20 20:00N 34°60' W 010°30'611.1
2017-May-20 19:30N 35°01' W 010°23'610.8
2017-May-20 19:00N 35°03' W 010°17'610.9
2017-May-20 18:28N 35°04' W 010°10'510.9
2017-May-20 17:58N 35°06' W 010°04'511.0
2017-May-20 17:30N 35°07' W 009°58'2611.1
2017-May-20 15:11N 35°16' W 009°28'210.9
2017-May-20 15:00N 35°17' W 009°26'710.8
2017-May-20 14:22N 35°19' W 009°18'910.1
2017-May-20 13:29N 35°18' W 009°07'510.5
2017-May-20 13:00N 35°20' W 009°01'510.5
2017-May-20 12:30N 35°21' W 008°55'510.7
2017-May-20 12:00N 35°23' W 008°49'510.5
2017-May-20 11:30N 35°25' W 008°43'610.7
2017-May-20 10:58N 35°26' W 008°36'510.6
2017-May-20 10:30N 35°27' W 008°30'510.6
2017-May-20 10:00N 35°28' W 008°24'2610.7
2017-May-20 07:38N 35°35' W 007°53'11111.2
2017-May-19 21:42N 35°57' W 005°39'2 9.7
2017-May-19 21:30N 35°57' W 005°36'510.9
2017-May-19 21:00N 35°58' W 005°30'510.8
2017-May-19 20:30N 36°00' W 005°23'611.7
2017-May-19 20:00N 36°02' W 005°17'611.9
2017-May-19 19:30N 36°02' W 005°09'  
2017-May-12 08:53N 36°05' W 005°24'0 0.0
2017-May-12 08:29N 36°05' W 005°24'0 0.0
2017-May-12 04:17N 36°06' W 005°25'0 0.1
2017-May-12 03:59N 36°06' W 005°25'0 0.0
2017-May-12 03:29N 36°06' W 005°25'0 0.0
2017-May-12 02:59N 36°06' W 005°25'0 0.1
2017-May-12 02:29N 36°06' W 005°25'0 0.0
2017-May-12 01:59N 36°06' W 005°25'0 0.1
2017-May-12 01:29N 36°06' W 005°25'0 0.0
2017-May-11 20:38N 36°05' W 005°24'0 0.0
2017-May-11 20:23N 36°05' W 005°24'0 0.0
2017-May-11 19:59N 36°05' W 005°24'0 0.0
2017-May-11 19:29N 36°05' W 005°24'0 0.1
2017-May-11 18:59N 36°05' W 005°24'0 0.0
2017-May-11 16:47N 36°05' W 005°24'0 0.0
2017-May-11 16:17N 36°05' W 005°24'0 0.0
2017-May-11 10:38N 36°06' W 005°25'0 0.1
2017-May-11 10:11N 36°06' W 005°25'0 0.1
2017-May-11 09:56N 36°06' W 005°24'  

Dump ship's entire track history